Iles-de-la-Madeleine, Canada
Current Conditions -  °F | °C
As of 11:00 PM on Saturday 22 Nov 2014 (Local Time) from CYGR Reporting Station
Broken Clouds Broken Clouds  
Wind Chill: 18°   Ceiling: 3000
Heat Index: 32°   Visibility: 15mi
Dew Point: 23°   Wind: 29mph
Humidity: 69%   Direction: 260°W
Pressure: 29.74"   Gusts: NA
Location:  47.42°N, 61.77°W
Report Text: CYGR 230300Z 26025KT 15SM BKN030 00/M05 A2974 RMK SC7 LAST OBS/NEXT 231000 UTC SLP070
Loading
Personal Weather Stations






























Interactive Weather Map New forecast layout! Learn more

10-Day Weather Forecast

Advertisements
Track Severe Weather on mobile